createdAt,value
2018-09-09T00:00:21.722Z,14.90
2018-09-09T00:02:56.237Z,14.90
2018-09-09T00:05:31.432Z,15.00
2018-09-09T00:08:05.743Z,15.00
2018-09-09T00:10:39.954Z,15.00
2018-09-09T00:13:14.787Z,15.00
2018-09-09T00:15:53.838Z,15.00
2018-09-09T00:18:29.124Z,15.00
2018-09-09T00:21:03.346Z,15.00
2018-09-09T00:23:39.556Z,15.00
2018-09-09T00:26:14.515Z,15.00
2018-09-09T00:28:49.380Z,15.00
2018-09-09T00:31:24.672Z,15.00
2018-09-09T00:33:59.005Z,15.00
2018-09-09T00:36:35.238Z,15.00
2018-09-09T00:39:09.614Z,15.00
2018-09-09T00:41:45.411Z,15.00
2018-09-09T00:44:20.399Z,15.00
2018-09-09T00:46:55.556Z,15.00
2018-09-09T00:49:36.170Z,15.00
2018-09-09T00:52:16.499Z,15.00
2018-09-09T00:54:51.201Z,15.00
2018-09-09T00:57:26.656Z,15.10
2018-09-09T01:00:01.101Z,15.10
2018-09-09T01:03:59.953Z,15.10
2018-09-09T01:06:34.187Z,15.10
2018-09-09T01:09:10.702Z,15.00
2018-09-09T01:11:46.592Z,15.00
2018-09-09T01:14:22.117Z,14.90
2018-09-09T01:16:57.574Z,14.80
2018-09-09T01:19:31.969Z,14.80
2018-09-09T01:22:06.169Z,14.80
2018-09-09T01:24:40.727Z,14.80
2018-09-09T01:27:15.644Z,14.70
2018-09-09T01:29:50.013Z,14.70
2018-09-09T01:32:26.277Z,14.60
2018-09-09T01:35:00.468Z,14.60
2018-09-09T01:37:34.944Z,14.60
2018-09-09T01:40:09.301Z,14.50
2018-09-09T01:42:43.982Z,14.60
2018-09-09T01:45:18.176Z,14.60
2018-09-09T01:47:53.171Z,14.60
2018-09-09T01:50:28.871Z,14.70
2018-09-09T01:53:03.417Z,14.70
2018-09-09T01:55:40.886Z,14.70
2018-09-09T01:58:15.339Z,14.70
2018-09-09T02:00:50.136Z,14.80
2018-09-09T02:03:25.528Z,14.80
2018-09-09T02:06:00.918Z,14.80
2018-09-09T02:08:35.749Z,14.80
2018-09-09T02:11:10.000Z,14.80
2018-09-09T02:13:45.639Z,14.80
2018-09-09T02:16:19.945Z,14.80
2018-09-09T02:18:56.368Z,14.80
2018-09-09T02:21:31.790Z,14.80
2018-09-09T02:24:10.286Z,14.80
2018-09-09T02:26:44.415Z,14.80
2018-09-09T02:29:18.667Z,14.70
2018-09-09T02:31:56.460Z,14.80
2018-09-09T02:34:30.686Z,14.70
2018-09-09T02:37:04.874Z,14.70
2018-09-09T02:39:40.214Z,14.70
2018-09-09T02:42:14.900Z,14.70
2018-09-09T02:44:49.018Z,14.70
2018-09-09T02:47:23.268Z,14.70
2018-09-09T02:49:59.291Z,14.60
2018-09-09T02:52:33.900Z,14.60
2018-09-09T02:55:08.063Z,14.50
2018-09-09T02:57:42.609Z,14.50
2018-09-09T03:00:16.998Z,14.40
2018-09-09T03:02:51.593Z,14.30
2018-09-09T03:05:25.864Z,14.30
2018-09-09T03:08:00.260Z,14.20
2018-09-09T03:10:34.497Z,14.20
2018-09-09T03:13:08.931Z,14.20
2018-09-09T03:15:45.452Z,14.20
2018-09-09T03:18:21.238Z,14.20
2018-09-09T03:20:56.838Z,14.20
2018-09-09T03:23:33.205Z,14.20
2018-09-09T03:26:07.593Z,14.20
2018-09-09T03:28:41.852Z,14.30
2018-09-09T03:31:16.295Z,14.20
2018-09-09T03:33:50.612Z,14.20
2018-09-09T03:36:24.952Z,14.30
2018-09-09T03:38:59.332Z,14.30
2018-09-09T03:41:33.440Z,14.20
2018-09-09T03:44:07.905Z,14.20
2018-09-09T03:46:42.203Z,14.20
2018-09-09T03:49:16.529Z,14.10
2018-09-09T03:51:51.032Z,14.00
2018-09-09T03:54:26.801Z,14.00
2018-09-09T03:57:01.110Z,14.00
2018-09-09T03:59:35.364Z,13.90
2018-09-09T04:02:10.479Z,13.80
2018-09-09T04:04:44.583Z,13.70
2018-09-09T04:07:18.728Z,13.70
2018-09-09T04:09:53.434Z,13.60
2018-09-09T04:12:28.038Z,13.40
2018-09-09T04:15:02.480Z,13.40
2018-09-09T04:17:36.746Z,13.30
2018-09-09T04:20:11.396Z,13.30
2018-09-09T04:22:46.077Z,13.20
2018-09-09T04:25:20.463Z,13.20
2018-09-09T04:27:56.101Z,13.20
2018-09-09T04:30:31.346Z,13.30
2018-09-09T04:33:09.493Z,13.30
2018-09-09T04:35:45.190Z,13.30
2018-09-09T04:38:20.439Z,13.20
2018-09-09T04:40:54.873Z,13.20
2018-09-09T04:43:31.453Z,13.30
2018-09-09T04:46:08.332Z,13.30
2018-09-09T04:48:42.651Z,13.20
2018-09-09T04:51:18.555Z,13.10
2018-09-09T04:53:53.486Z,13.10
2018-09-09T04:56:29.226Z,13.00
2018-09-09T04:59:05.750Z,12.90
2018-09-09T05:01:40.089Z,12.90
2018-09-09T05:04:17.931Z,12.80
2018-09-09T05:06:52.844Z,12.80
2018-09-09T05:09:28.912Z,12.80
2018-09-09T05:12:03.728Z,12.80
2018-09-09T05:14:37.961Z,12.90
2018-09-09T05:17:13.535Z,12.90
2018-09-09T05:19:48.572Z,12.90
2018-09-09T05:22:23.566Z,13.00
2018-09-09T05:24:58.340Z,13.10
2018-09-09T05:27:32.712Z,13.10
2018-09-09T05:30:08.528Z,13.20
2018-09-09T05:32:42.746Z,13.30
2018-09-09T05:35:17.724Z,13.30
2018-09-09T05:37:53.460Z,13.40
2018-09-09T05:40:27.704Z,13.40
2018-09-09T05:43:02.298Z,13.40
2018-09-09T05:45:37.125Z,13.50
2018-09-09T05:48:12.232Z,13.60
2018-09-09T05:50:47.875Z,13.60
2018-09-09T05:53:23.221Z,13.70
2018-09-09T05:55:57.541Z,13.80
2018-09-09T05:58:33.184Z,13.80
2018-09-09T06:01:07.917Z,13.90
2018-09-09T06:03:42.243Z,14.00
2018-09-09T06:06:16.977Z,14.00
2018-09-09T06:08:52.120Z,14.00
2018-09-09T06:11:27.210Z,14.10
2018-09-09T06:14:09.417Z,14.10
2018-09-09T06:16:43.880Z,14.20
2018-09-09T06:19:18.045Z,14.20
2018-09-09T06:21:53.312Z,14.30
2018-09-09T06:24:28.909Z,14.40
2018-09-09T06:27:03.235Z,14.40
2018-09-09T06:29:38.396Z,14.50
2018-09-09T06:32:21.995Z,14.70
2018-09-09T06:34:58.202Z,14.80
2018-09-09T06:37:32.498Z,15.00
2018-09-09T06:40:06.824Z,15.20
2018-09-09T06:42:43.751Z,15.40
2018-09-09T06:45:18.992Z,15.60
2018-09-09T06:47:53.932Z,15.90
2018-09-09T06:50:29.061Z,16.00
2018-09-09T06:53:03.312Z,16.20
2018-09-09T06:55:38.414Z,16.30
2018-09-09T06:58:14.213Z,16.30
2018-09-09T07:00:49.019Z,16.40
2018-09-09T07:03:26.232Z,16.40
2018-09-09T07:06:01.016Z,16.50
2018-09-09T07:08:36.216Z,16.50
2018-09-09T07:11:11.983Z,16.50
2018-09-09T07:13:46.698Z,16.50
2018-09-09T07:16:22.781Z,16.50
2018-09-09T07:18:57.324Z,16.40
2018-09-09T07:21:32.942Z,16.40
2018-09-09T07:24:08.411Z,16.30
2018-09-09T07:26:43.636Z,16.20
2018-09-09T07:29:18.009Z,16.20
2018-09-09T07:31:52.856Z,16.20
2018-09-09T07:34:31.428Z,16.20
2018-09-09T07:37:06.397Z,16.20
2018-09-09T07:39:41.629Z,16.30
2018-09-09T07:42:16.870Z,16.50
2018-09-09T07:44:51.461Z,16.60
2018-09-09T07:47:25.613Z,16.90
2018-09-09T07:50:00.633Z,17.30
2018-09-09T07:52:35.000Z,17.70
2018-09-09T07:55:09.198Z,18.00
2018-09-09T07:57:43.529Z,18.20
2018-09-09T08:00:19.255Z,18.40
2018-09-09T08:02:56.593Z,18.60
2018-09-09T08:05:32.713Z,18.50
2018-09-09T08:08:07.673Z,18.30
2018-09-09T08:10:42.765Z,18.30
2018-09-09T08:13:18.183Z,18.30
2018-09-09T08:15:52.762Z,18.30
2018-09-09T08:18:27.061Z,18.40
2018-09-09T08:21:03.102Z,18.50
2018-09-09T08:23:37.358Z,18.70
2018-09-09T08:26:12.079Z,18.90
2018-09-09T08:28:48.353Z,19.00
2018-09-09T08:31:23.603Z,19.10
2018-09-09T08:33:58.393Z,19.20
2018-09-09T08:36:32.644Z,19.30
2018-09-09T08:39:10.680Z,19.30
2018-09-09T08:41:44.981Z,19.20
2018-09-09T08:44:20.805Z,19.10
2018-09-09T08:46:55.344Z,19.10
2018-09-09T08:49:33.274Z,19.30
2018-09-09T08:52:09.125Z,19.20
2018-09-09T08:54:44.061Z,19.20
2018-09-09T08:57:18.252Z,19.20
2018-09-09T08:59:52.639Z,19.20
2018-09-09T09:02:26.933Z,19.20
2018-09-09T09:05:01.132Z,19.30
2018-09-09T09:07:37.840Z,19.40
2018-09-09T09:10:12.144Z,19.60
2018-09-09T09:13:02.159Z,19.60
2018-09-09T09:15:40.438Z,19.70
2018-09-09T09:22:12.959Z,19.70
2018-09-09T09:25:18.412Z,20.00
2018-09-09T09:27:55.625Z,20.30
2018-09-09T09:30:33.144Z,20.30
2018-09-09T09:33:07.587Z,20.40
2018-09-09T09:35:52.626Z,20.50
2018-09-09T09:41:40.050Z,20.50
2018-09-09T09:44:25.044Z,20.50
2018-09-09T09:47:08.468Z,20.40
2018-09-09T09:49:44.756Z,20.50
2018-09-09T09:52:19.824Z,20.40
2018-09-09T09:54:54.882Z,20.50
2018-09-09T09:58:00.569Z,20.50
2018-09-09T10:04:14.650Z,20.50
2018-09-09T10:06:57.041Z,20.60
2018-09-09T10:09:55.549Z,20.80
2018-09-09T10:12:30.264Z,21.10
2018-09-09T10:15:04.859Z,21.20
2018-09-09T10:17:39.275Z,21.20
2018-09-09T10:20:16.343Z,21.30
2018-09-09T10:22:51.446Z,21.10
2018-09-09T10:25:30.688Z,21.20
2018-09-09T10:28:07.351Z,21.40
2018-09-09T10:30:43.143Z,21.40
2018-09-09T10:33:19.717Z,21.40
2018-09-09T10:36:06.442Z,21.50
2018-09-09T10:38:50.782Z,21.60
2018-09-09T10:41:24.940Z,21.70
2018-09-09T10:44:00.050Z,21.70
2018-09-09T10:47:25.721Z,21.60
2018-09-09T10:56:01.297Z,21.30
2018-09-09T10:58:36.409Z,21.40
2018-09-09T11:01:12.381Z,21.60
2018-09-09T11:04:01.367Z,21.70
2018-09-09T11:06:36.319Z,21.80
2018-09-09T11:09:11.836Z,21.80
2018-09-09T11:11:46.174Z,21.80
2018-09-09T11:14:55.584Z,21.80
2018-09-09T11:20:16.830Z,22.00
2018-09-09T11:22:53.594Z,22.10
2018-09-09T11:25:27.737Z,22.30
2018-09-09T11:28:02.124Z,22.50
2018-09-09T11:30:37.639Z,22.60
2018-09-09T11:33:13.385Z,22.80
2018-09-09T11:35:47.747Z,22.80
2018-09-09T11:38:22.009Z,22.90
2018-09-09T11:40:56.325Z,23.00
2018-09-09T11:43:30.615Z,23.20
2018-09-09T11:46:04.916Z,23.30
2018-09-09T11:48:39.741Z,23.40
2018-09-09T11:51:13.951Z,23.20
2018-09-09T11:53:48.335Z,23.20
2018-09-09T11:56:22.610Z,23.00
2018-09-09T11:58:58.188Z,23.10
2018-09-09T12:01:45.865Z,23.30
2018-09-09T12:04:20.080Z,23.30
2018-09-09T12:06:54.598Z,23.40
2018-09-09T12:09:29.035Z,23.40
2018-09-09T12:12:09.226Z,23.40
2018-09-09T12:14:43.545Z,23.60
2018-09-09T12:17:19.218Z,23.90
2018-09-09T12:20:03.553Z,24.00
2018-09-09T12:22:39.205Z,24.00
2018-09-09T12:25:13.588Z,24.10
2018-09-09T12:27:47.837Z,24.20
2018-09-09T12:30:22.139Z,23.80
2018-09-09T12:32:56.447Z,23.70
2018-09-09T12:35:30.922Z,23.90
2018-09-09T12:38:05.237Z,23.60
2018-09-09T12:40:39.552Z,23.50
2018-09-09T12:43:19.358Z,23.90
2018-09-09T12:45:59.172Z,24.10
2018-09-09T12:48:38.767Z,24.80
2018-09-09T12:51:14.603Z,25.50
2018-09-09T12:53:49.030Z,26.90
2018-09-09T12:56:23.375Z,27.60
2018-09-09T12:58:58.792Z,27.90
2018-09-09T13:01:33.925Z,27.90
2018-09-09T13:04:08.107Z,28.70
2018-09-09T13:06:42.451Z,28.80
2018-09-09T13:09:17.169Z,30.40
2018-09-09T13:11:51.446Z,31.90
2018-09-09T13:14:26.698Z,33.10
2018-09-09T13:17:02.136Z,33.30
2018-09-09T13:19:38.035Z,34.30
2018-09-09T13:22:13.232Z,34.00
2018-09-09T13:24:52.310Z,32.30
2018-09-09T13:27:28.157Z,31.90
2018-09-09T13:30:04.224Z,30.60
2018-09-09T13:32:40.989Z,29.90
2018-09-09T13:35:15.167Z,29.40
2018-09-09T13:37:49.891Z,28.80
2018-09-09T13:40:27.956Z,27.50
2018-09-09T13:43:02.584Z,27.10
2018-09-09T13:45:37.435Z,27.30
2018-09-09T13:48:13.330Z,27.60
2018-09-09T13:50:47.915Z,28.20
2018-09-09T13:53:22.781Z,27.70
2018-09-09T13:55:56.970Z,27.90
2018-09-09T13:58:31.913Z,28.00
2018-09-09T14:01:06.265Z,27.20
2018-09-09T14:03:41.030Z,26.80
2018-09-09T14:06:15.281Z,26.50
2018-09-09T14:08:51.289Z,26.30
2018-09-09T14:11:25.493Z,26.10
2018-09-09T14:14:00.925Z,25.90
2018-09-09T14:16:35.182Z,26.00
2018-09-09T14:19:10.541Z,25.70
2018-09-09T14:21:45.377Z,25.50
2018-09-09T14:24:19.789Z,25.10
2018-09-09T14:26:54.238Z,24.70
2018-09-09T14:29:28.429Z,24.70
2018-09-09T14:32:02.548Z,24.60
2018-09-09T14:34:37.086Z,24.50
2018-09-09T14:37:11.366Z,24.70
2018-09-09T14:39:46.436Z,24.90
2018-09-09T14:42:20.654Z,25.80
2018-09-09T14:44:55.745Z,26.20
2018-09-09T14:47:31.106Z,26.30
2018-09-09T14:50:05.397Z,25.90
2018-09-09T14:52:40.321Z,26.20
2018-09-09T14:55:15.113Z,27.00
2018-09-09T14:57:51.295Z,27.40
2018-09-09T15:00:25.494Z,29.90
2018-09-09T15:02:59.731Z,33.70
2018-09-09T15:05:34.233Z,36.20
2018-09-09T15:08:08.572Z,38.60
2018-09-09T15:10:42.972Z,40.60
2018-09-09T15:13:17.901Z,41.40
2018-09-09T15:15:53.144Z,43.00
2018-09-09T15:18:29.430Z,42.10
2018-09-09T15:21:05.104Z,41.80
2018-09-09T15:23:40.786Z,40.80
2018-09-09T15:26:17.087Z,42.00
2018-09-09T15:28:52.559Z,40.00
2018-09-09T15:31:27.089Z,40.30
2018-09-09T15:34:03.201Z,40.20
2018-09-09T15:36:37.625Z,40.20
2018-09-09T15:39:14.100Z,40.90
2018-09-09T15:41:48.507Z,42.20
2018-09-09T15:44:23.549Z,42.40
2018-09-09T15:46:59.950Z,42.20
2018-09-09T15:49:36.076Z,40.80
2018-09-09T15:52:10.800Z,40.40
2018-09-09T15:54:45.082Z,40.30
2018-09-09T15:57:19.459Z,37.20
2018-09-09T15:59:54.843Z,37.40
2018-09-09T16:02:30.053Z,40.20
2018-09-09T16:05:05.216Z,41.70
2018-09-09T16:07:39.595Z,39.10
2018-09-09T16:10:13.812Z,36.10
2018-09-09T16:12:50.185Z,34.40
2018-09-09T16:15:24.498Z,32.90
2018-09-09T16:17:59.832Z,32.50
2018-09-09T16:20:35.647Z,32.90
2018-09-09T16:23:10.198Z,32.10
2018-09-09T16:25:44.357Z,32.10
2018-09-09T16:28:18.635Z,30.90
2018-09-09T16:30:52.910Z,30.30
2018-09-09T16:33:27.204Z,30.10
2018-09-09T16:36:02.570Z,31.40
2018-09-09T16:38:36.752Z,32.10
2018-09-09T16:41:12.093Z,32.20
2018-09-09T16:43:46.518Z,31.10
2018-09-09T16:46:21.720Z,29.90
2018-09-09T16:48:55.879Z,29.30
2018-09-09T16:51:30.366Z,28.70
2018-09-09T16:54:05.413Z,28.20
2018-09-09T16:56:39.836Z,27.70
2018-09-09T16:59:14.116Z,27.40
2018-09-09T17:01:52.249Z,27.30
2018-09-09T17:04:29.276Z,27.00
2018-09-09T17:07:07.243Z,26.70
2018-09-09T17:09:43.320Z,26.50
2018-09-09T17:12:21.676Z,26.10
2018-09-09T17:14:56.933Z,25.70
2018-09-09T17:17:32.104Z,25.10
2018-09-09T17:20:08.429Z,24.80
2018-09-09T17:22:42.896Z,24.50
2018-09-09T17:25:18.218Z,24.20
2018-09-09T17:27:52.885Z,24.00
2018-09-09T17:30:27.643Z,23.80
2018-09-09T17:33:02.425Z,23.60
2018-09-09T17:35:36.753Z,23.40
2018-09-09T17:38:12.231Z,23.10
2018-09-09T17:40:47.880Z,22.90
2018-09-09T17:43:27.573Z,22.80
2018-09-09T17:46:02.718Z,22.60
2018-09-09T17:48:37.493Z,22.40
2018-09-09T17:51:12.017Z,22.20
2018-09-09T17:53:47.145Z,22.10
2018-09-09T17:56:21.433Z,21.90
2018-09-09T17:58:59.624Z,21.70
2018-09-09T18:01:37.832Z,21.50
2018-09-09T18:04:12.691Z,21.30
2018-09-09T18:06:47.501Z,21.10
2018-09-09T18:09:22.313Z,20.90
2018-09-09T18:11:57.661Z,20.80
2018-09-09T18:14:32.066Z,20.60
2018-09-09T18:17:06.854Z,20.40
2018-09-09T18:19:41.151Z,20.30
2018-09-09T18:22:15.887Z,20.20
2018-09-09T18:24:51.778Z,20.00
2018-09-09T18:27:29.221Z,19.90
2018-09-09T18:30:05.673Z,19.80
2018-09-09T18:32:40.035Z,19.70
2018-09-09T18:35:14.567Z,19.60
2018-09-09T18:37:50.317Z,19.50
2018-09-09T18:40:30.469Z,19.40
2018-09-09T18:43:06.214Z,19.30
2018-09-09T18:45:41.508Z,19.20
2018-09-09T18:48:15.798Z,19.10
2018-09-09T18:50:51.176Z,18.90
2018-09-09T18:53:26.647Z,18.80
2018-09-09T18:56:01.073Z,18.70
2018-09-09T18:58:35.773Z,18.70
2018-09-09T19:01:10.359Z,18.60
2018-09-09T19:03:45.640Z,18.50
2018-09-09T19:06:19.983Z,18.50
2018-09-09T19:08:54.613Z,18.40
2018-09-09T19:11:30.851Z,18.30
2018-09-09T19:14:06.106Z,18.30
2018-09-09T19:16:40.548Z,18.30
2018-09-09T19:19:15.301Z,18.20
2018-09-09T19:21:50.239Z,18.20
2018-09-09T19:24:25.032Z,18.20
2018-09-09T19:26:59.349Z,18.10
2018-09-09T19:29:34.181Z,18.00
2018-09-09T19:32:08.437Z,18.00
2018-09-09T19:34:42.670Z,17.90
2018-09-09T19:37:18.044Z,17.80
2018-09-09T19:39:52.869Z,17.70
2018-09-09T19:42:27.936Z,17.60
2018-09-09T19:45:03.379Z,17.50
2018-09-09T19:47:37.714Z,17.50
2018-09-09T19:50:12.640Z,17.40
2018-09-09T19:52:48.153Z,17.30
2018-09-09T19:55:24.568Z,17.30
2018-09-09T19:58:00.264Z,17.20
2018-09-09T20:00:35.236Z,17.10
2018-09-09T20:03:10.265Z,17.00
2018-09-09T20:05:50.121Z,17.00
2018-09-09T20:08:25.713Z,16.90
2018-09-09T20:11:01.384Z,16.80
2018-09-09T20:13:38.183Z,16.80
2018-09-09T20:16:13.430Z,16.70
2018-09-09T20:18:48.827Z,16.70
2018-09-09T20:21:23.182Z,16.70
2018-09-09T20:23:59.324Z,16.70
2018-09-09T20:26:33.567Z,16.60
2018-09-09T20:29:08.469Z,16.50
2018-09-09T20:31:42.596Z,16.50
2018-09-09T20:34:16.997Z,16.50
2018-09-09T20:36:51.142Z,16.50
2018-09-09T20:39:26.775Z,16.50
2018-09-09T20:42:01.423Z,16.50
2018-09-09T20:44:36.779Z,16.50
2018-09-09T20:47:12.820Z,16.40
2018-09-09T20:49:47.268Z,16.40
2018-09-09T20:52:22.480Z,16.40
2018-09-09T20:54:57.767Z,16.30
2018-09-09T20:57:32.787Z,16.30
2018-09-09T21:00:08.865Z,16.30
2018-09-09T21:02:47.882Z,16.20
2018-09-09T21:05:22.886Z,16.20
2018-09-09T21:08:00.059Z,16.20
2018-09-09T21:10:37.855Z,16.20
2018-09-09T21:13:11.981Z,16.10
2018-09-09T21:15:46.479Z,16.10
2018-09-09T21:18:20.644Z,16.20
2018-09-09T21:20:56.755Z,16.20
2018-09-09T21:23:31.691Z,16.20
2018-09-09T21:26:07.776Z,16.10
2018-09-09T21:28:42.010Z,16.10
2018-09-09T21:31:17.047Z,16.10
2018-09-09T21:33:51.896Z,16.10
2018-09-09T21:36:26.576Z,16.00
2018-09-09T21:39:01.212Z,15.90
2018-09-09T21:41:36.378Z,15.90
2018-09-09T21:44:10.633Z,15.90
2018-09-09T21:46:45.275Z,15.80
2018-09-09T21:49:21.188Z,15.80
2018-09-09T21:51:55.567Z,15.80
2018-09-09T21:54:30.343Z,15.70
2018-09-09T21:57:05.827Z,15.70
2018-09-09T21:59:40.956Z,15.70
2018-09-09T22:02:15.252Z,15.70
2018-09-09T22:04:49.896Z,15.60
2018-09-09T22:07:26.314Z,15.50
2018-09-09T22:10:02.032Z,15.50
2018-09-09T22:12:38.298Z,15.40
2018-09-09T22:15:12.531Z,15.40
2018-09-09T22:17:46.776Z,15.50
2018-09-09T22:20:21.699Z,15.50
2018-09-09T22:22:56.700Z,15.50
2018-09-09T22:25:31.695Z,15.50
2018-09-09T22:28:08.409Z,15.60
2018-09-09T22:30:50.182Z,15.60
2018-09-09T22:33:25.082Z,15.50
2018-09-09T22:36:01.804Z,15.50
2018-09-09T22:38:36.006Z,15.50
2018-09-09T22:41:12.514Z,15.50
2018-09-09T22:43:47.899Z,15.50
2018-09-09T22:46:22.237Z,15.40
2018-09-09T22:48:57.784Z,15.40
2018-09-09T22:51:32.024Z,15.40
2018-09-09T22:54:06.300Z,15.40
2018-09-09T22:56:42.744Z,15.30
2018-09-09T22:59:18.344Z,15.30
2018-09-09T23:01:52.760Z,15.20
2018-09-09T23:04:26.938Z,15.20
2018-09-09T23:07:02.608Z,15.10
2018-09-09T23:09:40.509Z,15.10
2018-09-09T23:12:14.672Z,15.10
2018-09-09T23:14:51.215Z,15.00
2018-09-09T23:17:26.808Z,15.00
2018-09-09T23:20:01.759Z,14.90
2018-09-09T23:22:37.075Z,14.90
2018-09-09T23:25:11.461Z,14.90
2018-09-09T23:27:45.908Z,14.90
2018-09-09T23:30:20.876Z,14.90
2018-09-09T23:32:55.074Z,14.90
2018-09-09T23:35:30.029Z,14.90
2018-09-09T23:38:04.364Z,14.90
2018-09-09T23:40:38.542Z,14.90
2018-09-09T23:43:14.086Z,14.90
2018-09-09T23:45:49.058Z,15.00
2018-09-09T23:48:23.665Z,15.00
2018-09-09T23:50:58.600Z,14.90
2018-09-09T23:53:32.716Z,14.90
2018-09-09T23:56:07.099Z,14.90
2018-09-09T23:58:42.993Z,14.90
